Time;durP1;ratioP1;P1;durP2;ratioP2;P2;SDS_P1;SDS_P2;PMS_P1;PMS_P2;Temp;Humidity;BMP_temperature;BMP_pressure;BME280_temperature;BME280_humidity;BME280_pressure;Samples;Min_cycle;Max_cycle;Signal;HPM_P1;HPM_P2
2023/12/25 00:01:05;;;;;;;31.88;5.35;;;;;;;14.47;88.13;100576.13;5014753;28;20045;-45
2023/12/25 00:03:31;;;;;;;34.15;5.13;;;;;;;14.78;86.89;100567.16;5013578;28;20061;-49
2023/12/25 00:05:56;;;;;;;25.67;4.65;;;;;;;14.57;87.37;100569.97;5015257;28;20125;-44
2023/12/25 00:08:22;;;;;;;25.50;4.53;;;;;;;14.37;87.82;100571.81;5015347;28;20053;-45
2023/12/25 00:10:47;;;;;;;23.52;4.10;;;;;;;14.52;87.90;100558.59;5014562;28;20086;-44
2023/12/25 00:13:12;;;;;;;31.83;4.70;;;;;;;14.50;86.78;100566.50;5014866;28;20100;-44
2023/12/25 00:15:38;;;;;;;26.48;4.30;;;;;;;14.53;87.04;100565.59;5013982;28;20045;-48
2023/12/25 00:18:03;;;;;;;26.48;4.00;;;;;;;14.35;87.73;100569.19;5012438;28;20058;-45
2023/12/25 00:20:29;;;;;;;34.40;4.70;;;;;;;14.48;87.14;100570.00;5012886;28;20088;-45
2023/12/25 00:22:54;;;;;;;32.58;4.22;;;;;;;14.67;86.95;100565.50;5012075;28;20120;-49
2023/12/25 00:25:19;;;;;;;30.35;4.40;;;;;;;14.42;87.54;100567.44;5014482;28;20061;-45
2023/12/25 00:27:45;;;;;;;26.45;4.25;;;;;;;14.64;87.01;100581.28;5013732;28;20088;-46
2023/12/25 00:30:11;;;;;;;25.45;4.03;;;;;;;14.50;87.97;100587.50;5015677;28;20073;-43
2023/12/25 00:32:37;;;;;;;30.20;4.20;;;;;;;14.44;86.88;100578.78;5017971;28;20042;-46
2023/12/25 00:35:03;;;;;;;31.08;3.88;;;;;;;14.69;86.40;100579.47;5019425;28;20042;-45
2023/12/25 00:37:28;;;;;;;33.92;4.60;;;;;;;14.72;86.24;100587.31;5014672;28;20120;-44
2023/12/25 00:39:53;;;;;;;21.45;3.25;;;;;;;14.67;86.41;100582.13;5013579;28;20037;-45
2023/12/25 00:42:19;;;;;;;22.73;3.83;;;;;;;14.64;85.62;100579.50;5013430;28;20560;-50
2023/12/25 00:44:44;;;;;;;25.55;4.22;;;;;;;14.43;86.95;100580.53;5012845;28;20121;-46
2023/12/25 00:47:09;;;;;;;31.95;3.75;;;;;;;14.80;85.93;100575.00;5012850;28;20038;-46
2023/12/25 00:49:35;;;;;;;21.30;4.05;;;;;;;14.71;86.41;100575.06;5012576;28;20608;-50
2023/12/25 00:52:00;;;;;;;22.83;3.67;;;;;;;14.82;86.02;100581.97;5011561;28;20198;-48
2023/12/25 00:54:27;;;;;;;26.05;3.92;;;;;;;14.77;85.98;100572.41;5012944;28;20045;-48
2023/12/25 00:56:52;;;;;;;26.20;3.63;;;;;;;14.78;85.78;100603.00;5012296;28;20037;-44
2023/12/25 00:59:18;;;;;;;27.10;3.88;;;;;;;14.71;86.16;100598.69;5012909;28;20038;-47
2023/12/25 01:01:43;;;;;;;29.50;3.97;;;;;;;14.89;85.38;100593.28;5012608;28;20489;-43
2023/12/25 01:04:08;;;;;;;34.33;4.63;;;;;;;14.83;86.65;100581.09;5012279;28;20042;-45
2023/12/25 01:06:34;;;;;;;32.35;4.60;;;;;;;14.92;86.83;100581.03;5012482;28;20080;-45
2023/12/25 01:08:59;;;;;;;31.83;4.40;;;;;;;14.75;86.62;100585.56;5012529;28;20084;-49
2023/12/25 01:11:25;;;;;;;29.85;3.80;;;;;;;14.97;86.01;100587.09;5011609;28;20034;-46
2023/12/25 01:13:50;;;;;;;29.77;4.78;;;;;;;14.92;85.74;100580.16;5012279;28;20046;-48
2023/12/25 01:16:15;;;;;;;25.90;4.55;;;;;;;14.77;86.52;100575.91;5012758;28;20026;-46
2023/12/25 01:18:41;;;;;;;29.02;4.55;;;;;;;14.54;86.72;100586.59;5012006;28;20050;-45
2023/12/25 01:21:06;;;;;;;29.30;4.72;;;;;;;14.88;85.79;100578.44;5012779;28;20512;-45
2023/12/25 01:23:31;;;;;;;30.60;4.05;;;;;;;14.77;86.25;100569.78;5011750;28;20042;-44
2023/12/25 01:25:57;;;;;;;25.33;3.83;;;;;;;14.62;87.01;100583.91;5012329;28;20038;-45
2023/12/25 01:28:22;;;;;;;32.00;4.20;;;;;;;14.27;87.85;100584.13;5012410;28;20042;-46
2023/12/25 01:30:47;;;;;;;22.45;3.53;;;;;;;14.22;88.00;100591.13;5011988;28;20072;-44
2023/12/25 01:33:13;;;;;;;23.00;3.70;;;;;;;14.59;87.18;100591.78;5011924;28;20053;-48
2023/12/25 01:35:38;;;;;;;23.73;3.42;;;;;;;14.44;87.21;100598.03;5011668;28;20049;-43
2023/12/25 01:38:03;;;;;;;18.88;3.42;;;;;;;14.34;86.87;100593.66;5012325;28;20408;-47
2023/12/25 01:40:29;;;;;;;20.40;3.10;;;;;;;14.49;87.23;100593.63;5012410;28;20065;-45
2023/12/25 01:42:56;;;;;;;21.42;2.90;;;;;;;15.08;84.72;100580.88;5011308;28;20026;-46
2023/12/25 01:45:21;;;;;;;19.67;3.03;;;;;;;14.90;84.72;100597.66;5012323;28;20065;-43
2023/12/25 01:47:48;;;;;;;22.75;3.33;;;;;;;14.95;84.46;100591.47;5011320;28;20057;-44
2023/12/25 01:50:14;;;;;;;23.30;3.33;;;;;;;14.86;85.54;100594.19;5010725;28;20045;-43
2023/12/25 01:52:39;;;;;;;18.75;3.15;;;;;;;14.70;86.75;100591.72;5011063;28;20038;-43
2023/12/25 01:55:05;;;;;;;18.33;2.88;;;;;;;14.64;87.00;100592.63;5011977;28;20385;-44
2023/12/25 01:57:33;;;;;;;22.27;3.28;;;;;;;14.67;86.96;100599.59;5010804;28;20076;-43
2023/12/25 01:59:58;;;;;;;16.67;3.10;;;;;;;14.83;86.02;100594.22;5012144;28;20412;-46
2023/12/25 02:02:24;;;;;;;18.67;3.13;;;;;;;14.64;85.72;100597.84;5011260;28;20062;-44
2023/12/25 02:04:49;;;;;;;20.50;3.13;;;;;;;14.59;85.81;100607.53;5011129;28;20121;-44
2023/12/25 02:07:15;;;;;;;22.30;2.80;;;;;;;14.79;85.29;100623.13;5012143;28;20030;-47
2023/12/25 02:09:40;;;;;;;21.40;3.28;;;;;;;14.98;83.94;100628.22;5011311;28;20034;-46
2023/12/25 02:12:06;;;;;;;23.92;3.20;;;;;;;14.96;84.23;100631.72;5011400;28;20049;-43
2023/12/25 02:14:32;;;;;;;15.20;2.75;;;;;;;14.96;83.67;100631.72;5010968;28;20045;-46
2023/12/25 02:16:57;;;;;;;15.20;2.75;;;;;;;14.77;84.34;100633.63;5010956;28;20042;-46
2023/12/25 02:19:34;;;;;;;32.97;2.97;;;;;;;14.75;84.14;100639.78;5011573;28;20034;-46
2023/12/25 02:22:00;;;;;;;18.27;2.90;;;;;;;15.13;83.59;100621.94;5011251;28;20045;-44
2023/12/25 02:24:29;;;;;;;20.80;3.05;;;;;;;15.07;83.72;100608.88;5010791;28;20374;-44
2023/12/25 02:26:55;;;;;;;23.30;4.18;;;;;;;14.70;84.65;100634.53;5011135;28;20030;-44
2023/12/25 02:29:20;;;;;;;22.55;3.03;;;;;;;15.13;83.94;100629.81;5011175;28;20409;-45
2023/12/25 02:31:50;;;;;;;22.35;3.08;;;;;;;15.24;83.24;100637.63;5010559;28;20054;-45
2023/12/25 02:34:15;;;;;;;18.30;2.70;;;;;;;15.22;83.03;100631.50;5009925;28;20034;-48
2023/12/25 02:36:41;;;;;;;15.93;2.55;;;;;;;15.06;83.31;100630.78;5010726;28;20524;-45
2023/12/25 02:39:06;;;;;;;22.58;3.08;;;;;;;15.21;82.10;100629.75;5011524;28;20041;-44
2023/12/25 02:41:32;;;;;;;18.17;3.05;;;;;;;15.04;82.77;100627.28;5011047;28;20049;-44
2023/12/25 02:43:57;;;;;;;21.70;3.00;;;;;;;14.99;82.73;100627.34;5011122;28;20180;-45
2023/12/25 02:46:23;;;;;;;17.70;2.97;;;;;;;15.12;81.80;100627.22;5010758;28;20113;-45
2023/12/25 02:48:48;;;;;;;18.50;2.78;;;;;;;15.08;82.19;100636.00;5010556;28;20523;-48
2023/12/25 02:51:13;;;;;;;21.85;3.28;;;;;;;14.73;83.34;100628.41;5012786;28;20084;-44
2023/12/25 02:53:39;;;;;;;24.58;3.00;;;;;;;14.68;83.55;100641.59;5011053;28;20060;-48
2023/12/25 02:56:04;;;;;;;24.00;2.72;;;;;;;14.78;83.67;100638.00;5011260;28;20084;-46
2023/12/25 02:58:30;;;;;;;21.08;3.00;;;;;;;14.84;83.99;100647.56;5011065;28;20627;-45
2023/12/25 03:00:55;;;;;;;19.70;3.42;;;;;;;14.76;83.70;100655.50;5010744;28;20141;-45
2023/12/25 03:03:20;;;;;;;26.38;3.40;;;;;;;15.04;82.59;100653.56;5010565;28;20037;-47
2023/12/25 03:05:46;;;;;;;23.17;3.00;;;;;;;14.99;83.47;100666.72;5010688;28;20038;-45
2023/12/25 03:08:11;;;;;;;21.42;3.17;;;;;;;15.36;82.21;100672.53;5010994;28;20045;-48
2023/12/25 03:10:36;;;;;;;19.40;3.17;;;;;;;14.94;83.63;100659.78;5010833;28;20037;-46
2023/12/25 03:13:02;;;;;;;21.42;3.03;;;;;;;14.77;84.46;100675.63;5010533;28;20057;-46
2023/12/25 03:15:27;;;;;;;24.20;3.25;;;;;;;14.80;84.16;100669.50;5010847;28;20048;-49
2023/12/25 03:17:52;;;;;;;22.20;3.08;;;;;;;14.84;84.25;100661.56;5010617;28;20034;-43
2023/12/25 03:20:18;;;;;;;15.00;2.50;;;;;;;15.37;82.61;100676.00;5011035;28;20116;-45
2023/12/25 03:22:44;;;;;;;20.85;3.10;;;;;;;14.95;83.19;100679.84;5010718;28;20030;-44
2023/12/25 03:25:10;;;;;;;23.05;3.30;;;;;;;14.96;83.15;100676.34;5011985;28;20068;-47
2023/12/25 03:27:35;;;;;;;18.40;2.70;;;;;;;15.35;81.95;100669.91;5010702;28;20038;-43
2023/12/25 03:30:01;;;;;;;20.85;3.15;;;;;;;15.06;83.36;100672.78;5010968;28;20053;-43
2023/12/25 03:32:26;;;;;;;20.35;3.17;;;;;;;15.02;83.29;100673.69;5012271;28;20069;-49
2023/12/25 03:34:51;;;;;;;18.08;2.97;;;;;;;14.97;82.48;100668.47;5011575;28;20045;-44
2023/12/25 03:37:17;;;;;;;16.55;2.63;;;;;;;15.21;81.88;100670.03;5010376;28;20041;-46
2023/12/25 03:39:42;;;;;;;21.38;3.38;;;;;;;15.03;83.30;100664.94;5009775;28;20030;-45
2023/12/25 03:42:08;;;;;;;18.25;2.92;;;;;;;15.37;82.73;100673.38;5009053;28;20045;-46
2023/12/25 03:44:33;;;;;;;18.63;2.90;;;;;;;15.20;82.31;100675.28;5009456;28;20034;-44
2023/12/25 03:46:58;;;;;;;18.25;3.25;;;;;;;15.28;81.86;100669.09;5010356;28;20038;-46
2023/12/25 03:49:23;;;;;;;19.42;2.47;;;;;;;15.30;81.71;100669.97;5009983;28;20084;-45
2023/12/25 03:51:49;;;;;;;18.17;2.67;;;;;;;15.27;81.70;100667.34;5009563;28;20080;-45
2023/12/25 03:54:14;;;;;;;17.73;2.30;;;;;;;15.60;80.29;100665.31;5008439;28;20037;-46
2023/12/25 03:56:39;;;;;;;20.27;2.83;;;;;;;15.26;81.29;100660.34;5009740;28;20388;-46
2023/12/25 03:59:05;;;;;;;19.58;2.58;;;;;;;15.33;81.06;100659.41;5010683;28;20389;-48
2023/12/25 04:01:30;;;;;;;20.05;3.03;;;;;;;15.33;81.20;100662.03;5010812;28;20034;-45
2023/12/25 04:03:55;;;;;;;21.08;3.10;;;;;;;15.33;81.54;100659.41;5010101;28;20042;-47
2023/12/25 04:06:22;;;;;;;20.73;3.15;;;;;;;15.20;81.39;100678.78;5010364;28;20034;-44
2023/12/25 04:08:48;;;;;;;19.60;3.05;;;;;;;15.03;83.08;100662.31;5010246;28;20599;-44
2023/12/25 04:11:23;;;;;;;20.45;2.78;;;;;;;15.20;81.08;100670.03;5010861;28;20116;-50
2023/12/25 04:13:53;;;;;;;17.83;3.10;;;;;;;15.19;81.96;100655.16;5009503;28;20049;-45
2023/12/25 04:16:22;;;;;;;20.52;2.72;;;;;;;14.99;83.01;100652.72;5009976;28;20056;-45
2023/12/25 04:18:49;;;;;;;15.75;2.78;;;;;;;15.28;81.75;100666.47;5009809;28;20058;-48
2023/12/25 04:21:28;;;;;;;16.85;2.75;;;;;;;15.16;82.52;100655.19;5010495;28;20558;-46
2023/12/25 04:23:55;;;;;;;14.50;2.67;;;;;;;15.40;82.09;100668.09;5007969;28;20034;-45
2023/12/25 04:26:21;;;;;;;13.63;2.20;;;;;;;15.04;83.39;100671.94;5009504;28;20412;-49
2023/12/25 04:28:48;;;;;;;14.05;2.30;;;;;;;15.17;82.56;100663.06;5009093;28;20030;-46
2023/12/25 04:31:13;;;;;;;17.55;2.47;;;;;;;14.96;83.19;100664.09;5010104;28;20608;-45
2023/12/25 04:33:38;;;;;;;13.63;2.03;;;;;;;15.46;82.16;100662.78;5009335;28;20041;-48
2023/12/25 04:36:05;;;;;;;14.95;2.28;;;;;;;15.13;82.49;100661.34;5009666;28;20045;-45
2023/12/25 04:38:31;;;;;;;14.95;2.08;;;;;;;15.18;82.63;100663.94;5009524;28;20034;-47
2023/12/25 04:40:56;;;;;;;15.55;2.33;;;;;;;14.98;82.54;100662.34;5013419;28;20045;-45
2023/12/25 04:43:21;;;;;;;12.65;2.20;;;;;;;15.29;81.90;100643.69;5012797;28;20120;-47
2023/12/25 04:45:47;;;;;;;15.15;2.15;;;;;;;15.30;81.27;100640.19;5011262;28;20042;-45
2023/12/25 04:48:12;;;;;;;10.85;1.80;;;;;;;14.71;82.13;100644.16;5012832;28;20065;-46
2023/12/25 04:50:38;;;;;;;11.70;1.90;;;;;;;15.00;81.28;100664.97;5012950;28;20107;-46
2023/12/25 04:53:04;;;;;;;9.73;1.60;;;;;;;14.86;81.87;100643.19;5011541;28;20114;-49
2023/12/25 04:55:29;;;;;;;6.90;1.30;;;;;;;15.34;79.88;100645.41;5013156;28;20049;-50
2023/12/25 04:57:54;;;;;;;9.85;1.30;;;;;;;15.62;78.43;100638.13;5012744;28;20045;-51
2023/12/25 05:00:20;;;;;;;8.15;1.48;;;;;;;15.42;78.49;100640.94;5013081;28;20104;-45
2023/12/25 05:02:46;;;;;;;5.43;1.13;;;;;;;15.58;77.02;100643.44;5012246;28;20468;-50
2023/12/25 05:05:11;;;;;;;5.65;1.20;;;;;;;15.58;76.37;100648.69;5013099;28;20042;-45
2023/12/25 05:07:37;;;;;;;4.63;0.88;;;;;;;15.25;77.73;100658.59;5012157;28;20042;-48
2023/12/25 05:10:03;;;;;;;7.70;1.13;;;;;;;14.94;78.36;100650.09;5013270;28;20030;-48
2023/12/25 05:12:28;;;;;;;4.45;0.82;;;;;;;15.04;77.49;100648.31;5012282;28;20041;-48
2023/12/25 05:14:54;;;;;;;2.95;0.75;;;;;;;15.27;76.83;100667.34;5012420;28;20370;-47
2023/12/25 05:17:19;;;;;;;7.00;1.10;;;;;;;15.28;76.58;100647.22;5012661;28;20049;-49
2023/12/25 05:19:44;;;;;;;6.80;0.93;;;;;;;15.36;76.97;100662.03;5010721;28;20068;-46
2023/12/25 05:22:10;;;;;;;6.57;1.42;;;;;;;15.16;76.79;100673.56;5012264;28;20045;-48
2023/12/25 05:24:35;;;;;;;6.88;1.00;;;;;;;15.10;77.24;100671.00;5011942;28;20038;-47
2023/12/25 05:27:00;;;;;;;10.15;1.30;;;;;;;14.71;77.75;100673.03;5012747;28;20054;-47
2023/12/25 05:29:26;;;;;;;7.20;1.02;;;;;;;14.69;78.71;100666.06;5012595;28;20050;-45
2023/12/25 05:31:51;;;;;;;7.40;1.23;;;;;;;14.90;77.46;100679.91;5012618;28;20554;-47
2023/12/25 05:34:16;;;;;;;12.52;1.55;;;;;;;14.62;78.09;100665.25;5012134;28;20231;-49
2023/12/25 05:36:42;;;;;;;8.90;1.40;;;;;;;14.97;77.74;100657.97;5012269;28;20037;-47
2023/12/25 05:39:08;;;;;;;11.38;1.63;;;;;;;14.58;77.74;100667.00;5012490;28;20116;-47
2023/12/25 05:41:34;;;;;;;10.45;1.42;;;;;;;14.63;78.33;100666.13;5011639;28;20041;-46
2023/12/25 05:43:59;;;;;;;11.48;1.55;;;;;;;14.71;77.18;100670.41;5012220;28;20038;-53
2023/12/25 05:46:25;;;;;;;17.33;1.70;;;;;;;14.63;77.79;100672.22;5012337;28;20034;-46
2023/12/25 05:48:50;;;;;;;15.13;1.80;;;;;;;14.53;77.99;100674.03;5011873;28;20069;-45
2023/12/25 05:51:15;;;;;;;14.32;1.60;;;;;;;14.69;77.02;100666.06;5011724;28;20038;-48
2023/12/25 05:53:41;;;;;;;10.82;1.45;;;;;;;14.60;77.20;100674.84;5011636;28;20042;-44
2023/12/25 05:56:06;;;;;;;9.30;1.58;;;;;;;15.01;76.42;100677.19;5012073;28;20037;-49
2023/12/25 05:58:32;;;;;;;14.15;1.58;;;;;;;14.71;76.76;100678.28;5011548;28;20096;-50
2023/12/25 06:00:57;;;;;;;14.02;2.15;;;;;;;14.98;76.18;100674.59;5012039;28;20702;-47
2023/12/25 06:03:22;;;;;;;13.27;1.88;;;;;;;14.69;76.41;100666.94;5011961;28;20042;-46
2023/12/25 06:05:48;;;;;;;11.40;1.75;;;;;;;14.94;75.89;100659.78;5011910;28;20084;-44
2023/12/25 06:08:13;;;;;;;11.43;1.50;;;;;;;15.01;75.32;100656.19;5010386;28;20040;-44
2023/12/25 06:10:38;;;;;;;8.10;1.50;;;;;;;14.66;76.14;100666.06;5009942;28;20585;-47
2023/12/25 06:13:04;;;;;;;8.70;1.40;;;;;;;14.98;75.17;100662.34;5011659;28;20052;-44
2023/12/25 06:15:29;;;;;;;12.05;1.52;;;;;;;15.05;75.13;100672.81;5011898;28;20099;-46
2023/12/25 06:17:54;;;;;;;11.07;1.63;;;;;;;15.26;73.93;100659.47;5011509;28;20649;-45
2023/12/25 06:20:20;;;;;;;11.68;1.40;;;;;;;14.99;74.74;100660.59;5012076;28;20034;-44
2023/12/25 06:22:46;;;;;;;11.57;1.50;;;;;;;15.01;75.10;100666.69;5011262;28;20041;-46
2023/12/25 06:25:12;;;;;;;10.80;1.60;;;;;;;14.68;76.00;100672.19;4994503;28;20038;-47
2023/12/25 06:27:37;;;;;;;11.95;1.75;;;;;;;14.85;75.81;100681.69;5012270;28;20038;-46
2023/12/25 06:30:04;;;;;;;11.57;1.42;;;;;;;14.91;76.71;100683.41;5012288;28;20042;-45
2023/12/25 06:32:29;;;;;;;12.98;1.42;;;;;;;14.91;77.08;100683.41;5012520;28;20044;-46
2023/12/25 06:34:55;;;;;;;9.18;1.40;;;;;;;14.60;79.00;100683.59;5012578;28;20030;-45
2023/12/25 06:37:20;;;;;;;9.57;1.10;;;;;;;14.92;77.84;100678.16;5012851;28;20046;-44
2023/12/25 06:39:45;;;;;;;15.57;1.65;;;;;;;15.32;76.45;100686.56;5011324;28;20041;-48
2023/12/25 06:42:11;;;;;;;7.82;1.38;;;;;;;14.94;77.60;100688.66;5011296;28;20456;-44
2023/12/25 06:44:38;;;;;;;11.13;1.50;;;;;;;14.79;78.45;100688.72;5010774;28;20505;-44
2023/12/25 06:47:04;;;;;;;12.50;1.60;;;;;;;15.02;78.15;100687.69;5011209;28;20435;-47
2023/12/25 06:49:29;;;;;;;9.52;1.70;;;;;;;14.90;78.25;100690.41;5011284;28;20052;-46
2023/12/25 06:51:54;;;;;;;7.63;1.48;;;;;;;14.87;78.18;100700.94;5010821;28;20100;-48
2023/12/25 06:54:19;;;;;;;11.90;1.38;;;;;;;14.93;77.30;100707.91;5011251;28;20560;-44
2023/12/25 06:56:45;;;;;;;11.68;1.42;;;;;;;15.26;76.35;100690.97;5009283;28;20080;-46
2023/12/25 06:59:10;;;;;;;6.63;1.27;;;;;;;14.95;77.16;100701.72;5011032;28;20034;-44
2023/12/25 07:01:35;;;;;;;7.30;1.30;;;;;;;14.96;76.50;100703.47;5010279;28;20088;-44
2023/12/25 07:04:01;;;;;;;9.52;1.20;;;;;;;15.07;76.10;100702.53;5010793;28;20494;-44
2023/12/25 07:06:26;;;;;;;8.02;1.23;;;;;;;15.12;76.28;100698.13;5010331;28;20038;-45
2023/12/25 07:08:52;;;;;;;7.72;1.05;;;;;;;15.37;75.39;100703.13;5010373;28;20029;-45
2023/12/25 07:11:17;;;;;;;9.25;1.00;;;;;;;15.23;75.23;100697.16;5010793;28;20056;-47
2023/12/25 07:13:43;;;;;;;12.10;1.10;;;;;;;15.34;75.31;100702.31;5009387;28;20030;-46
2023/12/25 07:16:09;;;;;;;7.22;1.20;;;;;;;15.05;75.95;100707.81;5010637;28;20042;-47
2023/12/25 07:18:34;;;;;;;8.25;1.40;;;;;;;15.27;75.80;100705.88;5010214;28;20034;-44
2023/12/25 07:20:59;;;;;;;8.82;1.10;;;;;;;14.70;77.76;100708.03;5010675;28;20061;-48
2023/12/25 07:23:25;;;;;;;7.43;1.25;;;;;;;15.27;76.14;100704.13;5010223;28;20034;-45
2023/12/25 07:25:50;;;;;;;6.93;1.15;;;;;;;14.92;77.34;100714.03;5010024;28;20117;-45
2023/12/25 07:28:15;;;;;;;7.90;1.35;;;;;;;14.98;77.56;100708.72;5010712;28;20456;-45
2023/12/25 07:30:43;;;;;;;3.63;0.75;;;;;;;15.33;76.36;100703.19;5010440;28;20100;-45
2023/12/25 07:33:09;;;;;;;7.75;1.25;;;;;;;15.17;75.81;100699.84;5009822;28;20053;-46
2023/12/25 07:35:34;;;;;;;4.85;0.90;;;;;;;15.16;76.09;100705.97;5009273;28;20038;-49
2023/12/25 07:38:00;;;;;;;5.93;1.20;;;;;;;14.85;77.23;100699.19;5010486;28;20030;-45
2023/12/25 07:40:25;;;;;;;8.05;1.10;;;;;;;14.89;77.09;100703.53;5010473;28;20042;-45
2023/12/25 07:42:50;;;;;;;7.75;1.65;;;;;;;14.81;77.80;100723.72;5010074;28;20050;-48
2023/12/25 07:45:16;;;;;;;10.70;1.40;;;;;;;14.97;77.03;100728.84;5011368;28;20037;-45
2023/12/25 07:47:41;;;;;;;11.70;1.35;;;;;;;14.72;77.28;100737.75;5011721;28;20108;-45
2023/12/25 07:50:08;;;;;;;9.75;1.30;;;;;;;14.92;76.96;100738.53;5012493;28;20042;-45
2023/12/25 07:52:33;;;;;;;8.43;1.25;;;;;;;14.82;77.05;100734.19;5010255;28;20038;-46
2023/12/25 07:54:59;;;;;;;9.18;1.30;;;;;;;14.75;76.96;100729.88;5010274;28;20619;-44
2023/12/25 07:57:24;;;;;;;7.43;1.00;;;;;;;15.19;75.13;100723.44;5011263;28;20045;-48
2023/12/25 07:59:49;;;;;;;7.45;1.35;;;;;;;15.14;75.17;100723.47;5011785;28;20030;-45
2023/12/25 08:02:15;;;;;;;8.05;1.25;;;;;;;15.35;74.68;100741.72;5010653;28;20497;-48
2023/12/25 08:04:40;;;;;;;7.32;1.10;;;;;;;15.20;75.18;100749.69;5009862;28;20100;-50
2023/12/25 08:07:06;;;;;;;9.27;1.60;;;;;;;15.18;74.64;100748.84;5010600;28;20049;-45
2023/12/25 08:09:31;;;;;;;8.93;1.52;;;;;;;14.62;76.11;100751.81;5009208;28;20093;-50
2023/12/25 08:11:57;;;;;;;10.02;1.30;;;;;;;15.15;75.01;100748.84;5011194;28;20038;-45
2023/12/25 08:14:22;;;;;;;7.75;1.20;;;;;;;15.13;75.24;100745.34;5011627;28;20433;-46
2023/12/25 08:16:48;;;;;;;4.50;1.15;;;;;;;14.71;76.02;100750.88;5013429;28;20132;-48
2023/12/25 08:19:13;;;;;;;8.40;1.20;;;;;;;15.32;74.71;100741.72;5013760;28;20113;-46
2023/12/25 08:21:40;;;;;;;7.50;1.10;;;;;;;15.25;75.17;100731.25;5013231;28;20045;-49
2023/12/25 08:24:05;;;;;;;7.97;1.23;;;;;;;15.49;74.16;100735.47;5013285;28;20034;-46
2023/12/25 08:26:31;;;;;;;7.38;1.20;;;;;;;15.35;75.07;100744.34;5013600;28;20073;-46
2023/12/25 08:28:57;;;;;;;7.32;1.10;;;;;;;15.47;74.55;100753.88;5013784;28;20077;-47
2023/12/25 08:31:22;;;;;;;4.97;1.00;;;;;;;15.24;75.75;100754.06;5013460;28;20033;-51
2023/12/25 08:33:47;;;;;;;7.28;1.30;;;;;;;15.12;76.08;100750.66;5012781;28;20050;-49
2023/12/25 08:36:13;;;;;;;6.75;1.23;;;;;;;15.48;75.00;100755.59;5013360;28;20030;-46
2023/12/25 08:38:38;;;;;;;8.60;1.20;;;;;;;15.54;74.56;100750.34;5013167;28;20037;-45
2023/12/25 08:41:04;;;;;;;5.57;1.13;;;;;;;15.39;74.87;100768.81;5013713;28;20053;-46
2023/12/25 08:43:30;;;;;;;8.45;1.30;;;;;;;15.31;75.54;100767.97;5013091;28;20037;-48
2023/12/25 08:45:56;;;;;;;5.10;1.10;;;;;;;14.84;77.28;100766.56;5013099;28;20045;-49
2023/12/25 08:48:21;;;;;;;7.60;1.10;;;;;;;15.34;75.87;100781.97;5013439;28;20125;-47
2023/12/25 08:50:46;;;;;;;7.22;1.27;;;;;;;15.37;75.19;100762.69;5012862;28;20427;-45
2023/12/25 08:53:12;;;;;;;4.32;1.02;;;;;;;15.28;74.66;100753.13;5013088;28;20484;-45
2023/12/25 08:55:40;;;;;;;10.32;1.40;;;;;;;15.00;75.20;100757.69;5012775;28;20042;-50
2023/12/25 08:58:06;;;;;;;7.97;1.38;;;;;;;15.37;74.60;100763.56;5013406;28;20033;-46
2023/12/25 09:00:31;;;;;;;7.57;2.70;;;;;;;15.16;74.84;100782.13;5013090;28;20382;-48
2023/12/25 09:02:56;;;;;;;7.78;1.83;;;;;;;15.55;73.48;100782.75;5012977;28;20042;-46
2023/12/25 09:05:22;;;;;;;5.47;1.10;;;;;;;15.55;72.61;100788.00;5012727;28;20038;-51
2023/12/25 09:07:47;;;;;;;6.63;1.00;;;;;;;15.25;73.73;100787.28;5011303;28;20038;-46
2023/12/25 09:10:12;;;;;;;5.82;1.08;;;;;;;15.02;73.95;100803.19;5013102;28;20041;-47
2023/12/25 09:12:38;;;;;;;7.55;1.25;;;;;;;15.53;72.49;100816.91;5012392;28;20045;-44
2023/12/25 09:15:04;;;;;;;8.70;1.30;;;;;;;15.49;72.06;100812.50;5013542;28;20528;-43
2023/12/25 09:17:30;;;;;;;7.25;1.25;;;;;;;15.48;70.83;100805.53;5013873;28;20038;-43
2023/12/25 09:19:56;;;;;;;7.00;1.20;;;;;;;15.34;70.51;100794.25;5013149;28;20037;-46
2023/12/25 09:22:23;;;;;;;9.90;1.10;;;;;;;15.36;70.67;100793.38;5013273;28;20034;-45
2023/12/25 09:24:50;;;;;;;5.57;1.10;;;;;;;14.90;71.24;100799.78;5012738;28;20042;-48
2023/12/25 09:27:16;;;;;;;5.70;1.23;;;;;;;15.18;70.40;100816.25;5013348;28;20176;-45
2023/12/25 09:29:41;;;;;;;4.57;1.02;;;;;;;15.41;69.80;100795.94;5013436;28;20125;-48
2023/12/25 09:32:06;;;;;;;5.95;0.90;;;;;;;15.39;69.21;100802.97;5014131;28;20034;-46
2023/12/25 09:34:32;;;;;;;6.55;1.25;;;;;;;15.19;69.73;100818.84;5013439;28;20041;-43
2023/12/25 09:36:58;;;;;;;5.82;1.10;;;;;;;15.65;68.13;100805.41;5016997;28;20045;-50
2023/12/25 09:39:24;;;;;;;7.45;1.10;;;;;;;15.50;69.13;100810.75;5018277;28;20102;-47
2023/12/25 09:41:50;;;;;;;7.32;1.10;;;;;;;15.29;68.04;100807.41;5012880;28;20038;-48
2023/12/25 09:44:16;;;;;;;6.63;1.27;;;;;;;15.29;69.36;100810.03;5012285;28;20493;-50
2023/12/25 09:46:42;;;;;;;3.70;1.00;;;;;;;15.55;68.89;100809.88;5011767;28;20045;-47
2023/12/25 09:49:07;;;;;;;5.68;1.20;;;;;;;15.14;69.35;100810.13;5012095;28;20141;-47
2023/12/25 09:51:34;;;;;;;7.78;1.30;;;;;;;15.43;68.63;100797.66;5011488;28;20564;-45
2023/12/25 09:54:00;;;;;;;4.72;1.10;;;;;;;15.82;66.91;100790.38;5012031;28;20041;-46
2023/12/25 09:56:27;;;;;;;9.75;1.60;;;;;;;15.77;67.94;100802.69;5011899;28;20068;-48
2023/12/25 09:58:54;;;;;;;12.73;1.40;;;;;;;15.86;67.32;100812.25;5011828;28;20040;-45
2023/12/25 10:01:20;;;;;;;4.45;1.23;;;;;;;15.28;68.98;100815.28;5012078;28;20113;-47
2023/12/25 10:03:46;;;;;;;6.97;1.20;;;;;;;15.55;68.74;100823.03;5011434;28;20034;-46
2023/12/25 10:06:12;;;;;;;9.45;1.83;;;;;;;15.36;69.51;100827.50;5011748;28;20034;-45
2023/12/25 10:08:38;;;;;;;7.88;1.30;;;;;;;15.69;68.49;100829.03;5011070;28;20175;-47
2023/12/25 10:11:04;;;;;;;6.03;0.93;;;;;;;15.71;67.29;100816.75;5011779;28;20041;-48
2023/12/25 10:13:31;;;;;;;7.13;1.23;;;;;;;15.67;67.38;100824.69;5011559;28;20116;-45
2023/12/25 10:15:56;;;;;;;5.72;1.05;;;;;;;15.74;67.01;100821.09;5011311;28;20511;-45
2023/12/25 10:18:22;;;;;;;7.40;1.25;;;;;;;15.82;66.91;100825.41;5011524;28;20036;-49
2023/12/25 10:20:58;;;;;;;3.47;1.08;;;;;;;15.39;66.94;100822.22;5011008;28;20484;-46
2023/12/25 10:23:33;;;;;;;8.13;1.00;;;;;;;15.47;67.34;100824.81;5011253;28;20097;-49
2023/12/25 10:26:02;;;;;;;6.85;1.40;;;;;;;15.49;67.04;100841.41;5010973;28;20107;-49
2023/12/25 10:28:30;;;;;;;6.13;1.30;;;;;;;15.17;67.40;100841.63;5011169;28;20041;-45
2023/12/25 10:31:06;;;;;;;4.63;1.10;;;;;;;15.03;67.34;100844.34;5010876;28;20516;-50
2023/12/25 10:33:33;;;;;;;3.92;0.95;;;;;;;15.53;66.41;100827.41;5010499;28;20038;-46
2023/12/25 10:36:07;;;;;;;4.35;0.90;;;;;;;15.60;66.06;100836.13;5011434;28;20034;-48
2023/12/25 10:38:39;;;;;;;2.83;1.05;;;;;;;15.60;66.68;100846.63;5009149;28;20038;-49
2023/12/25 10:41:20;;;;;;;3.60;1.10;;;;;;;15.71;66.84;100847.41;5011384;28;20037;-46
2023/12/25 10:43:54;;;;;;;4.22;1.10;;;;;;;15.73;66.04;100854.41;5010641;28;20049;-50
2023/12/25 10:46:21;;;;;;;3.05;1.10;;;;;;;15.94;66.24;100839.31;5010944;28;20034;-46
2023/12/25 10:48:51;;;;;;;4.20;0.90;;;;;;;15.79;66.48;100841.22;5009365;28;20034;-47
2023/12/25 10:51:30;;;;;;;5.18;0.98;;;;;;;15.55;66.93;100836.16;5011064;28;20068;-45
2023/12/25 10:54:00;;;;;;;4.50;0.75;;;;;;;16.10;65.67;100830.44;5010175;28;20619;-44
2023/12/25 10:56:27;;;;;;;6.00;1.10;;;;;;;15.75;66.97;100835.97;5010870;28;20405;-46
2023/12/25 10:58:57;;;;;;;8.63;1.42;;;;;;;15.79;67.03;100827.22;5010488;28;20025;-52
2023/12/25 11:01:24;;;;;;;3.63;1.00;;;;;;;16.11;66.52;100814.59;5010613;28;20065;-45
2023/12/25 11:03:52;;;;;;;5.55;1.08;;;;;;;15.37;68.07;100816.09;5010184;28;20062;-47
2023/12/25 11:06:19;;;;;;;7.57;1.20;;;;;;;15.35;68.91;100817.88;5010824;28;20042;-50
2023/12/25 11:08:44;;;;;;;4.63;1.20;;;;;;;15.71;68.81;100826.41;5010175;28;20040;-46
2023/12/25 11:11:13;;;;;;;6.20;1.30;;;;;;;15.56;68.89;100829.13;5010667;28;20120;-48
2023/12/25 11:13:39;;;;;;;5.13;1.40;;;;;;;15.49;68.82;100811.66;5010034;28;20504;-45
2023/12/25 11:16:05;;;;;;;6.63;1.02;;;;;;;15.39;69.34;100824.84;5010668;28;20049;-45